首页
METAR-TAF:

METAR-TAF

机场 :

多佛, 特拉华州, 美国

纬度: 39-08N, 经度: 075-28W, 海拔: 9米

当前天气观测

该预报发布于1小时和18分钟前的10:56 UTC
风速16节,风向西,有时为25节阵风
温度 5°C
湿度 70%
气压 1001 hPa
能見度: 16.1公里
少量云层高于5000英尺

METAR: KDOV 271056Z AUTO 26016G25KT 10SM FEW050 05/00 A2956 RMK AO2 SLP013 T00461002 $

时间: 07:14 (12:14 UTC)

预报

该预报发布于4小时和14分钟前的08:00 UTC
预报有效从27日的 08点(UTC)到 28日的 14点(UTC)
风速20节,风向西转西北,有时为30节阵风
能見度: 9000
散云层高于1500英尺
多云层高于4500英尺
小雨
成为
从 27日的 09点(UTC)到 27日的 10点(UTC)
风速25节,风向西,有时为35节阵风
能见度10公里或以上
少量云层高于4500英尺
成为
从 27日的 23点(UTC)到 27日的 24点(UTC)
风速25节,风向西,有时为30节阵风
能见度10公里或以上
散云层高于5000英尺
成为
从 28日的 08点(UTC)到 28日的 09点(UTC)
风速20节,风向西,有时为25节阵风
能见度10公里或以上
少量云层高于4000英尺
成为
从 28日的 11点(UTC)到 28日的 12点(UTC)
风速12节,风向西转西南
能见度10公里或以上
散云层高于4500英尺

TAF: KDOV 270800Z 2708/2814 30020G30KT 9000 -RA SCT015 BKN045 510063 QNH2946INS BECMG 2709/2710 28025G35KT 9999 NSW FEW045 510023 QNH2955INS BECMG 2723/2724 27025G30KT 9999 SCT050 510023 QNH2982INS BECMG 2808/2809 27020G25KT 9999 FEW040 510053 QNH2988INS BECMG 2811/2812 25012KT 9999 SCT045 510033 QNH2988INS TX07/2710Z TN00/2808Z

超过4000个机场的气象观测和天气预报(METAR&TAF报告)。

可查询的气象台以黄色和红色小点在地图上表示。

将鼠标移到小点上方,可查看气象台名称。

然后点击查看天气观测和预报。

如需切换地图:点击带黑十字的绿色按钮放大地图;点击带横线的绿色按钮缩小地图;或者点击绿色箭头查看邻近地区的地图。


METAR-TAF: